sensor_id;sensor_type;location;lat;lon;timestamp;P1;durP1;ratioP1;P2;durP2;ratioP2
1414;SDS011;702;49.466;11.086;2023-02-27T00:00:29;3.17;;;2.00;;
1414;SDS011;702;49.466;11.086;2023-02-27T00:02:57;3.03;;;2.00;;
1414;SDS011;702;49.466;11.086;2023-02-27T00:05:25;2.90;;;1.90;;
1414;SDS011;702;49.466;11.086;2023-02-27T00:07:52;2.23;;;1.67;;
1414;SDS011;702;49.466;11.086;2023-02-27T00:10:20;4.63;;;1.67;;
1414;SDS011;702;49.466;11.086;2023-02-27T00:12:47;1.70;;;1.53;;
1414;SDS011;702;49.466;11.086;2023-02-27T00:15:16;1.53;;;1.43;;
1414;SDS011;702;49.466;11.086;2023-02-27T00:17:45;2.27;;;1.70;;
1414;SDS011;702;49.466;11.086;2023-02-27T00:20:13;2.00;;;1.77;;
1414;SDS011;702;49.466;11.086;2023-02-27T00:22:43;3.70;;;1.90;;
1414;SDS011;702;49.466;11.086;2023-02-27T00:25:11;3.73;;;1.80;;
1414;SDS011;702;49.466;11.086;2023-02-27T00:27:39;2.03;;;1.80;;
1414;SDS011;702;49.466;11.086;2023-02-27T00:30:08;2.40;;;1.60;;
1414;SDS011;702;49.466;11.086;2023-02-27T00:32:38;2.03;;;1.93;;
1414;SDS011;702;49.466;11.086;2023-02-27T00:35:07;3.50;;;1.80;;
1414;SDS011;702;49.466;11.086;2023-02-27T00:37:36;2.70;;;1.40;;
1414;SDS011;702;49.466;11.086;2023-02-27T00:40:05;2.40;;;1.90;;
1414;SDS011;702;49.466;11.086;2023-02-27T00:42:34;3.00;;;2.17;;
1414;SDS011;702;49.466;11.086;2023-02-27T00:45:02;2.03;;;1.93;;
1414;SDS011;702;49.466;11.086;2023-02-27T00:47:31;2.80;;;2.23;;
1414;SDS011;702;49.466;11.086;2023-02-27T00:49:59;1.87;;;1.77;;
1414;SDS011;702;49.466;11.086;2023-02-27T00:52:27;2.87;;;1.50;;
1414;SDS011;702;49.466;11.086;2023-02-27T00:54:54;1.67;;;1.57;;
1414;SDS011;702;49.466;11.086;2023-02-27T00:57:22;3.00;;;1.83;;
1414;SDS011;702;49.466;11.086;2023-02-27T00:59:50;2.47;;;1.70;;
1414;SDS011;702;49.466;11.086;2023-02-27T01:02:17;2.40;;;2.00;;
1414;SDS011;702;49.466;11.086;2023-02-27T01:04:45;2.23;;;2.03;;
1414;SDS011;702;49.466;11.086;2023-02-27T01:07:12;4.37;;;1.57;;
1414;SDS011;702;49.466;11.086;2023-02-27T01:09:39;3.60;;;1.87;;
1414;SDS011;702;49.466;11.086;2023-02-27T01:12:06;2.13;;;1.67;;
1414;SDS011;702;49.466;11.086;2023-02-27T01:14:35;1.93;;;1.80;;
1414;SDS011;702;49.466;11.086;2023-02-27T01:17:02;3.50;;;2.23;;
1414;SDS011;702;49.466;11.086;2023-02-27T01:19:30;4.27;;;2.10;;
1414;SDS011;702;49.466;11.086;2023-02-27T01:21:57;5.57;;;1.97;;
1414;SDS011;702;49.466;11.086;2023-02-27T01:24:24;2.23;;;1.90;;
1414;SDS011;702;49.466;11.086;2023-02-27T01:26:52;2.70;;;1.50;;
1414;SDS011;702;49.466;11.086;2023-02-27T01:29:19;1.67;;;1.57;;
1414;SDS011;702;49.466;11.086;2023-02-27T01:31:48;2.70;;;1.80;;
1414;SDS011;702;49.466;11.086;2023-02-27T01:34:15;2.23;;;2.03;;
1414;SDS011;702;49.466;11.086;2023-02-27T01:36:43;2.53;;;2.10;;
1414;SDS011;702;49.466;11.086;2023-02-27T01:39:10;5.30;;;2.27;;
1414;SDS011;702;49.466;11.086;2023-02-27T01:41:38;2.53;;;2.10;;
1414;SDS011;702;49.466;11.086;2023-02-27T01:44:06;2.23;;;1.80;;
1414;SDS011;702;49.466;11.086;2023-02-27T01:46:36;2.83;;;1.90;;
1414;SDS011;702;49.466;11.086;2023-02-27T01:49:08;2.97;;;1.80;;
1414;SDS011;702;49.466;11.086;2023-02-27T01:51:44;2.40;;;1.80;;
1414;SDS011;702;49.466;11.086;2023-02-27T01:54:15;2.60;;;1.93;;
1414;SDS011;702;49.466;11.086;2023-02-27T01:56:45;6.93;;;1.80;;
1414;SDS011;702;49.466;11.086;2023-02-27T01:59:13;4.47;;;1.80;;
1414;SDS011;702;49.466;11.086;2023-02-27T02:01:42;2.03;;;1.90;;
1414;SDS011;702;49.466;11.086;2023-02-27T02:04:13;1.80;;;1.70;;
1414;SDS011;702;49.466;11.086;2023-02-27T02:06:45;1.97;;;1.77;;
1414;SDS011;702;49.466;11.086;2023-02-27T02:09:18;2.17;;;1.80;;
1414;SDS011;702;49.466;11.086;2023-02-27T02:11:47;1.60;;;1.50;;
1414;SDS011;702;49.466;11.086;2023-02-27T02:14:15;3.33;;;1.50;;
1414;SDS011;702;49.466;11.086;2023-02-27T02:16:55;2.60;;;1.80;;
1414;SDS011;702;49.466;11.086;2023-02-27T02:26:19;1.60;;;1.50;;
1414;SDS011;702;49.466;11.086;2023-02-27T02:29:01;2.00;;;1.40;;
1414;SDS011;702;49.466;11.086;2023-02-27T02:32:28;5.73;;;1.97;;
1414;SDS011;702;49.466;11.086;2023-02-27T02:35:44;4.23;;;1.90;;
1414;SDS011;702;49.466;11.086;2023-02-27T02:38:56;2.60;;;2.07;;
1414;SDS011;702;49.466;11.086;2023-02-27T02:41:48;6.00;;;2.30;;
1414;SDS011;702;49.466;11.086;2023-02-27T02:44:25;2.93;;;1.77;;
1414;SDS011;702;49.466;11.086;2023-02-27T02:47:03;3.07;;;2.10;;
1414;SDS011;702;49.466;11.086;2023-02-27T02:49:40;1.57;;;1.47;;
1414;SDS011;702;49.466;11.086;2023-02-27T02:52:19;2.30;;;2.10;;
1414;SDS011;702;49.466;11.086;2023-02-27T02:54:58;4.67;;;2.10;;
1414;SDS011;702;49.466;11.086;2023-02-27T02:57:35;3.13;;;2.07;;
1414;SDS011;702;49.466;11.086;2023-02-27T03:00:07;3.50;;;2.10;;
1414;SDS011;702;49.466;11.086;2023-02-27T03:02:41;2.93;;;1.87;;
1414;SDS011;702;49.466;11.086;2023-02-27T03:05:14;2.87;;;2.27;;
1414;SDS011;702;49.466;11.086;2023-02-27T03:07:49;2.17;;;1.90;;
1414;SDS011;702;49.466;11.086;2023-02-27T03:10:25;6.33;;;2.10;;
1414;SDS011;702;49.466;11.086;2023-02-27T03:12:57;3.33;;;2.43;;
1414;SDS011;702;49.466;11.086;2023-02-27T03:15:29;2.40;;;2.20;;
1414;SDS011;702;49.466;11.086;2023-02-27T03:18:02;2.30;;;2.10;;
1414;SDS011;702;49.466;11.086;2023-02-27T03:20:34;3.37;;;2.00;;
1414;SDS011;702;49.466;11.086;2023-02-27T03:23:07;2.57;;;1.87;;
1414;SDS011;702;49.466;11.086;2023-02-27T03:25:41;4.53;;;1.80;;
1414;SDS011;702;49.466;11.086;2023-02-27T03:28:12;3.97;;;2.83;;
1414;SDS011;702;49.466;11.086;2023-02-27T03:30:44;5.27;;;2.67;;
1414;SDS011;702;49.466;11.086;2023-02-27T03:33:17;3.20;;;2.37;;
1414;SDS011;702;49.466;11.086;2023-02-27T03:35:50;2.03;;;1.80;;
1414;SDS011;702;49.466;11.086;2023-02-27T03:38:25;2.50;;;2.30;;
1414;SDS011;702;49.466;11.086;2023-02-27T03:41:03;1.73;;;1.63;;
1414;SDS011;702;49.466;11.086;2023-02-27T03:43:39;3.37;;;2.20;;
1414;SDS011;702;49.466;11.086;2023-02-27T03:46:15;2.67;;;1.90;;
1414;SDS011;702;49.466;11.086;2023-02-27T03:48:46;8.50;;;2.43;;
1414;SDS011;702;49.466;11.086;2023-02-27T03:51:14;3.87;;;2.40;;
1414;SDS011;702;49.466;11.086;2023-02-27T03:53:45;2.00;;;1.90;;
1414;SDS011;702;49.466;11.086;2023-02-27T03:56:20;3.30;;;2.23;;
1414;SDS011;702;49.466;11.086;2023-02-27T03:58:51;4.40;;;2.33;;
1414;SDS011;702;49.466;11.086;2023-02-27T04:01:19;2.60;;;2.37;;
1414;SDS011;702;49.466;11.086;2023-02-27T04:03:48;6.57;;;2.40;;
1414;SDS011;702;49.466;11.086;2023-02-27T04:06:22;4.87;;;2.50;;
1414;SDS011;702;49.466;11.086;2023-02-27T04:09:24;3.90;;;2.40;;
1414;SDS011;702;49.466;11.086;2023-02-27T04:12:03;5.70;;;2.50;;
1414;SDS011;702;49.466;11.086;2023-02-27T04:14:51;2.10;;;1.90;;
1414;SDS011;702;49.466;11.086;2023-02-27T04:17:29;2.47;;;2.27;;
1414;SDS011;702;49.466;11.086;2023-02-27T04:20:11;1.80;;;1.70;;
1414;SDS011;702;49.466;11.086;2023-02-27T04:23:07;3.70;;;2.17;;
1414;SDS011;702;49.466;11.086;2023-02-27T04:25:46;3.17;;;2.10;;
1414;SDS011;702;49.466;11.086;2023-02-27T04:28:26;2.20;;;1.90;;
1414;SDS011;702;49.466;11.086;2023-02-27T04:31:03;4.53;;;2.20;;
1414;SDS011;702;49.466;11.086;2023-02-27T04:33:39;2.67;;;1.87;;
1414;SDS011;702;49.466;11.086;2023-02-27T04:36:11;2.93;;;2.07;;
1414;SDS011;702;49.466;11.086;2023-02-27T04:38:46;4.33;;;2.57;;
1414;SDS011;702;49.466;11.086;2023-02-27T04:41:22;2.67;;;2.10;;
1414;SDS011;702;49.466;11.086;2023-02-27T04:43:56;5.10;;;2.00;;
1414;SDS011;702;49.466;11.086;2023-02-27T04:46:28;2.70;;;2.03;;
1414;SDS011;702;49.466;11.086;2023-02-27T04:48:58;2.53;;;2.33;;
1414;SDS011;702;49.466;11.086;2023-02-27T04:51:31;4.23;;;2.30;;
1414;SDS011;702;49.466;11.086;2023-02-27T04:54:02;3.53;;;2.50;;
1414;SDS011;702;49.466;11.086;2023-02-27T04:56:37;2.90;;;2.70;;
1414;SDS011;702;49.466;11.086;2023-02-27T04:59:11;2.50;;;2.30;;
1414;SDS011;702;49.466;11.086;2023-02-27T05:01:43;2.80;;;2.00;;
1414;SDS011;702;49.466;11.086;2023-02-27T05:04:18;4.47;;;2.53;;
1414;SDS011;702;49.466;11.086;2023-02-27T05:06:48;4.93;;;2.27;;
1414;SDS011;702;49.466;11.086;2023-02-27T05:09:18;2.60;;;2.37;;
1414;SDS011;702;49.466;11.086;2023-02-27T05:11:52;5.87;;;2.60;;
1414;SDS011;702;49.466;11.086;2023-02-27T05:14:26;3.87;;;2.63;;
1414;SDS011;702;49.466;11.086;2023-02-27T05:16:59;8.40;;;3.00;;
1414;SDS011;702;49.466;11.086;2023-02-27T05:19:33;3.93;;;2.73;;
1414;SDS011;702;49.466;11.086;2023-02-27T05:22:10;3.17;;;2.87;;
1414;SDS011;702;49.466;11.086;2023-02-27T05:24:48;4.13;;;2.50;;
1414;SDS011;702;49.466;11.086;2023-02-27T05:27:28;2.73;;;2.53;;
1414;SDS011;702;49.466;11.086;2023-02-27T05:30:02;3.17;;;2.60;;
1414;SDS011;702;49.466;11.086;2023-02-27T05:32:38;5.77;;;2.93;;
1414;SDS011;702;49.466;11.086;2023-02-27T05:35:11;4.73;;;2.70;;
1414;SDS011;702;49.466;11.086;2023-02-27T05:37:45;3.37;;;2.77;;
1414;SDS011;702;49.466;11.086;2023-02-27T05:40:18;3.07;;;2.67;;
1414;SDS011;702;49.466;11.086;2023-02-27T05:42:50;3.40;;;2.23;;
1414;SDS011;702;49.466;11.086;2023-02-27T05:45:25;3.43;;;2.80;;
1414;SDS011;702;49.466;11.086;2023-02-27T05:47:59;3.63;;;2.60;;
1414;SDS011;702;49.466;11.086;2023-02-27T05:50:32;6.60;;;2.97;;
1414;SDS011;702;49.466;11.086;2023-02-27T05:53:03;3.90;;;3.17;;
1414;SDS011;702;49.466;11.086;2023-02-27T05:55:37;2.97;;;2.40;;
1414;SDS011;702;49.466;11.086;2023-02-27T05:58:09;2.60;;;2.40;;
1414;SDS011;702;49.466;11.086;2023-02-27T06:00:45;3.00;;;2.53;;
1414;SDS011;702;49.466;11.086;2023-02-27T06:03:16;4.13;;;2.90;;
1414;SDS011;702;49.466;11.086;2023-02-27T06:05:43;4.20;;;2.90;;
1414;SDS011;702;49.466;11.086;2023-02-27T06:08:11;4.63;;;4.13;;
1414;SDS011;702;49.466;11.086;2023-02-27T06:10:38;7.83;;;3.33;;
1414;SDS011;702;49.466;11.086;2023-02-27T06:13:06;3.00;;;2.80;;
1414;SDS011;702;49.466;11.086;2023-02-27T06:15:33;3.20;;;2.67;;
1414;SDS011;702;49.466;11.086;2023-02-27T06:18:01;5.20;;;2.37;;
1414;SDS011;702;49.466;11.086;2023-02-27T06:20:29;3.60;;;2.63;;
1414;SDS011;702;49.466;11.086;2023-02-27T06:22:56;2.70;;;2.50;;
1414;SDS011;702;49.466;11.086;2023-02-27T06:25:24;3.47;;;2.33;;
1414;SDS011;702;49.466;11.086;2023-02-27T06:27:51;7.23;;;3.03;;
1414;SDS011;702;49.466;11.086;2023-02-27T06:30:19;4.23;;;3.03;;
1414;SDS011;702;49.466;11.086;2023-02-27T06:32:46;5.63;;;3.03;;
1414;SDS011;702;49.466;11.086;2023-02-27T06:35:15;5.60;;;2.97;;
1414;SDS011;702;49.466;11.086;2023-02-27T06:37:42;3.07;;;2.73;;
1414;SDS011;702;49.466;11.086;2023-02-27T06:40:10;2.70;;;2.47;;
1414;SDS011;702;49.466;11.086;2023-02-27T06:42:39;3.97;;;3.50;;
1414;SDS011;702;49.466;11.086;2023-02-27T06:45:07;4.17;;;3.20;;
1414;SDS011;702;49.466;11.086;2023-02-27T06:47:36;4.80;;;3.17;;
1414;SDS011;702;49.466;11.086;2023-02-27T06:50:04;3.77;;;3.27;;
1414;SDS011;702;49.466;11.086;2023-02-27T06:52:34;3.10;;;2.80;;
1414;SDS011;702;49.466;11.086;2023-02-27T06:55:01;3.97;;;3.57;;
1414;SDS011;702;49.466;11.086;2023-02-27T06:57:29;7.07;;;3.57;;
1414;SDS011;702;49.466;11.086;2023-02-27T06:59:56;4.67;;;3.27;;
1414;SDS011;702;49.466;11.086;2023-02-27T07:02:24;7.83;;;3.20;;
1414;SDS011;702;49.466;11.086;2023-02-27T07:04:54;3.23;;;2.83;;
1414;SDS011;702;49.466;11.086;2023-02-27T07:07:21;4.70;;;3.97;;
1414;SDS011;702;49.466;11.086;2023-02-27T07:09:53;4.63;;;3.40;;
1414;SDS011;702;49.466;11.086;2023-02-27T07:12:20;4.03;;;3.03;;
1414;SDS011;702;49.466;11.086;2023-02-27T07:14:47;3.93;;;3.53;;
1414;SDS011;702;49.466;11.086;2023-02-27T07:17:15;5.30;;;2.90;;
1414;SDS011;702;49.466;11.086;2023-02-27T07:19:42;5.30;;;3.33;;
1414;SDS011;702;49.466;11.086;2023-02-27T07:22:10;5.43;;;3.50;;
1414;SDS011;702;49.466;11.086;2023-02-27T07:24:37;5.68;;;3.97;;
1414;SDS011;702;49.466;11.086;2023-02-27T07:27:06;4.83;;;3.70;;
1414;SDS011;702;49.466;11.086;2023-02-27T07:29:33;3.63;;;3.10;;
1414;SDS011;702;49.466;11.086;2023-02-27T07:32:00;4.40;;;3.43;;
1414;SDS011;702;49.466;11.086;2023-02-27T07:34:28;5.33;;;3.17;;
1414;SDS011;702;49.466;11.086;2023-02-27T07:36:55;4.87;;;3.50;;
1414;SDS011;702;49.466;11.086;2023-02-27T07:39:23;4.03;;;3.03;;
1414;SDS011;702;49.466;11.086;2023-02-27T07:41:50;8.63;;;3.50;;
1414;SDS011;702;49.466;11.086;2023-02-27T07:44:19;3.23;;;3.03;;
1414;SDS011;702;49.466;11.086;2023-02-27T07:46:46;6.87;;;3.07;;
1414;SDS011;702;49.466;11.086;2023-02-27T07:49:13;5.63;;;3.60;;
1414;SDS011;702;49.466;11.086;2023-02-27T07:51:41;4.60;;;3.97;;
1414;SDS011;702;49.466;11.086;2023-02-27T07:54:08;4.70;;;3.80;;
1414;SDS011;702;49.466;11.086;2023-02-27T07:56:35;5.23;;;3.13;;
1414;SDS011;702;49.466;11.086;2023-02-27T07:59:02;4.93;;;3.27;;
1414;SDS011;702;49.466;11.086;2023-02-27T08:01:31;19.03;;;4.30;;
1414;SDS011;702;49.466;11.086;2023-02-27T08:03:58;15.40;;;3.77;;
1414;SDS011;702;49.466;11.086;2023-02-27T08:06:25;7.60;;;3.17;;
1414;SDS011;702;49.466;11.086;2023-02-27T08:08:53;7.73;;;2.90;;
1414;SDS011;702;49.466;11.086;2023-02-27T08:11:20;8.17;;;3.33;;
1414;SDS011;702;49.466;11.086;2023-02-27T08:13:47;3.73;;;2.57;;
1414;SDS011;702;49.466;11.086;2023-02-27T08:16:14;5.00;;;3.17;;
1414;SDS011;702;49.466;11.086;2023-02-27T08:18:43;4.27;;;2.93;;
1414;SDS011;702;49.466;11.086;2023-02-27T08:21:11;6.13;;;2.87;;
1414;SDS011;702;49.466;11.086;2023-02-27T08:23:38;2.87;;;2.47;;
1414;SDS011;702;49.466;11.086;2023-02-27T08:26:05;6.13;;;3.50;;
1414;SDS011;702;49.466;11.086;2023-02-27T08:28:32;5.47;;;2.40;;
1414;SDS011;702;49.466;11.086;2023-02-27T08:30:59;5.40;;;3.07;;
1414;SDS011;702;49.466;11.086;2023-02-27T08:33:27;5.63;;;2.97;;
1414;SDS011;702;49.466;11.086;2023-02-27T08:35:55;5.03;;;2.60;;
1414;SDS011;702;49.466;11.086;2023-02-27T08:38:23;4.67;;;2.10;;
1414;SDS011;702;49.466;11.086;2023-02-27T08:40:50;3.40;;;2.00;;
1414;SDS011;702;49.466;11.086;2023-02-27T08:43:18;5.00;;;2.30;;
1414;SDS011;702;49.466;11.086;2023-02-27T08:45:46;3.30;;;2.10;;
1414;SDS011;702;49.466;11.086;2023-02-27T08:48:13;7.80;;;2.30;;
1414;SDS011;702;49.466;11.086;2023-02-27T08:50:42;5.80;;;2.03;;
1414;SDS011;702;49.466;11.086;2023-02-27T08:53:12;7.13;;;2.50;;
1414;SDS011;702;49.466;11.086;2023-02-27T08:55:40;2.73;;;2.50;;
1414;SDS011;702;49.466;11.086;2023-02-27T08:58:08;2.50;;;2.30;;
1414;SDS011;702;49.466;11.086;2023-02-27T09:00:35;3.30;;;2.23;;
1414;SDS011;702;49.466;11.086;2023-02-27T09:03:03;3.20;;;2.10;;
1414;SDS011;702;49.466;11.086;2023-02-27T09:05:31;2.87;;;2.17;;
1414;SDS011;702;49.466;11.086;2023-02-27T09:07:59;2.10;;;1.73;;
1414;SDS011;702;49.466;11.086;2023-02-27T09:10:28;2.60;;;1.83;;
1414;SDS011;702;49.466;11.086;2023-02-27T09:12:56;5.17;;;2.10;;
1414;SDS011;702;49.466;11.086;2023-02-27T09:15:23;4.07;;;2.07;;
1414;SDS011;702;49.466;11.086;2023-02-27T09:17:51;3.97;;;2.30;;
1414;SDS011;702;49.466;11.086;2023-02-27T09:20:20;2.50;;;2.20;;
1414;SDS011;702;49.466;11.086;2023-02-27T09:22:47;3.13;;;2.20;;
1414;SDS011;702;49.466;11.086;2023-02-27T09:25:15;3.37;;;2.17;;
1414;SDS011;702;49.466;11.086;2023-02-27T09:27:43;3.13;;;1.87;;
1414;SDS011;702;49.466;11.086;2023-02-27T09:30:11;2.17;;;1.97;;
1414;SDS011;702;49.466;11.086;2023-02-27T09:32:38;2.57;;;2.07;;
1414;SDS011;702;49.466;11.086;2023-02-27T09:35:07;3.90;;;2.23;;
1414;SDS011;702;49.466;11.086;2023-02-27T09:37:35;12.03;;;2.40;;
1414;SDS011;702;49.466;11.086;2023-02-27T09:40:02;4.17;;;2.53;;
1414;SDS011;702;49.466;11.086;2023-02-27T09:42:32;3.33;;;1.63;;
1414;SDS011;702;49.466;11.086;2023-02-27T09:45:14;2.43;;;1.60;;
1414;SDS011;702;49.466;11.086;2023-02-27T09:47:49;2.40;;;1.50;;
1414;SDS011;702;49.466;11.086;2023-02-27T09:50:25;4.70;;;1.50;;
1414;SDS011;702;49.466;11.086;2023-02-27T09:53:02;2.60;;;1.87;;
1414;SDS011;702;49.466;11.086;2023-02-27T09:55:31;2.20;;;1.90;;
1414;SDS011;702;49.466;11.086;2023-02-27T09:58:04;3.50;;;1.70;;
1414;SDS011;702;49.466;11.086;2023-02-27T10:00:46;5.50;;;1.90;;
1414;SDS011;702;49.466;11.086;2023-02-27T10:03:27;4.00;;;2.00;;
1414;SDS011;702;49.466;11.086;2023-02-27T10:06:14;4.30;;;2.23;;
1414;SDS011;702;49.466;11.086;2023-02-27T10:08:51;2.37;;;1.27;;
1414;SDS011;702;49.466;11.086;2023-02-27T10:11:31;3.70;;;1.57;;
1414;SDS011;702;49.466;11.086;2023-02-27T10:14:11;5.07;;;1.80;;
1414;SDS011;702;49.466;11.086;2023-02-27T10:16:49;3.47;;;1.73;;
1414;SDS011;702;49.466;11.086;2023-02-27T10:19:20;3.60;;;1.73;;
1414;SDS011;702;49.466;11.086;2023-02-27T10:21:53;3.27;;;1.37;;
1414;SDS011;702;49.466;11.086;2023-02-27T10:24:23;2.70;;;1.80;;
1414;SDS011;702;49.466;11.086;2023-02-27T10:26:54;4.50;;;1.57;;
1414;SDS011;702;49.466;11.086;2023-02-27T10:29:26;2.27;;;1.43;;
1414;SDS011;702;49.466;11.086;2023-02-27T10:32:00;3.10;;;1.80;;
1414;SDS011;702;49.466;11.086;2023-02-27T10:34:32;2.50;;;1.60;;
1414;SDS011;702;49.466;11.086;2023-02-27T10:37:01;1.70;;;1.60;;
1414;SDS011;702;49.466;11.086;2023-02-27T10:39:30;4.20;;;1.53;;
1414;SDS011;702;49.466;11.086;2023-02-27T10:42:09;5.33;;;1.80;;
1414;SDS011;702;49.466;11.086;2023-02-27T10:44:40;6.97;;;1.90;;
1414;SDS011;702;49.466;11.086;2023-02-27T10:47:10;1.60;;;1.47;;
1414;SDS011;702;49.466;11.086;2023-02-27T10:49:39;4.50;;;1.47;;
1414;SDS011;702;49.466;11.086;2023-02-27T10:52:10;4.47;;;1.70;;
1414;SDS011;702;49.466;11.086;2023-02-27T10:54:40;2.60;;;1.70;;
1414;SDS011;702;49.466;11.086;2023-02-27T10:57:17;3.50;;;2.00;;
1414;SDS011;702;49.466;11.086;2023-02-27T10:59:52;4.00;;;1.80;;
1414;SDS011;702;49.466;11.086;2023-02-27T11:02:24;2.17;;;1.60;;
1414;SDS011;702;49.466;11.086;2023-02-27T11:04:58;4.20;;;1.43;;
1414;SDS011;702;49.466;11.086;2023-02-27T11:07:27;2.17;;;1.40;;
1414;SDS011;702;49.466;11.086;2023-02-27T11:09:58;2.50;;;1.67;;
1414;SDS011;702;49.466;11.086;2023-02-27T11:12:42;2.50;;;1.50;;
1414;SDS011;702;49.466;11.086;2023-02-27T11:15:25;1.33;;;1.23;;
1414;SDS011;702;49.466;11.086;2023-02-27T11:20:53;2.20;;;1.43;;
1414;SDS011;702;49.466;11.086;2023-02-27T11:23:54;3.13;;;1.20;;
1414;SDS011;702;49.466;11.086;2023-02-27T11:26:29;2.83;;;1.50;;
1414;SDS011;702;49.466;11.086;2023-02-27T11:29:02;3.80;;;1.27;;
1414;SDS011;702;49.466;11.086;2023-02-27T11:31:43;2.47;;;1.53;;
1414;SDS011;702;49.466;11.086;2023-02-27T11:34:20;2.93;;;1.07;;
1414;SDS011;702;49.466;11.086;2023-02-27T11:36:53;1.87;;;1.13;;
1414;SDS011;702;49.466;11.086;2023-02-27T11:39:25;1.50;;;1.40;;
1414;SDS011;702;49.466;11.086;2023-02-27T11:44:55;2.23;;;1.33;;
1414;SDS011;702;49.466;11.086;2023-02-27T11:47:26;3.10;;;1.10;;
1414;SDS011;702;49.466;11.086;2023-02-27T11:50:26;5.17;;;1.60;;
1414;SDS011;702;49.466;11.086;2023-02-27T11:56:40;3.67;;;1.83;;
1414;SDS011;702;49.466;11.086;2023-02-27T11:59:21;3.00;;;1.63;;
1414;SDS011;702;49.466;11.086;2023-02-27T12:01:58;2.23;;;1.30;;
1414;SDS011;702;49.466;11.086;2023-02-27T12:04:36;1.53;;;1.33;;
1414;SDS011;702;49.466;11.086;2023-02-27T12:07:13;1.90;;;1.80;;
1414;SDS011;702;49.466;11.086;2023-02-27T12:09:49;3.03;;;1.90;;
1414;SDS011;702;49.466;11.086;2023-02-27T12:12:25;1.53;;;1.43;;
1414;SDS011;702;49.466;11.086;2023-02-27T12:15:12;3.47;;;1.47;;
1414;SDS011;702;49.466;11.086;2023-02-27T12:17:50;2.50;;;1.70;;
1414;SDS011;702;49.466;11.086;2023-02-27T12:20:27;4.97;;;2.23;;
1414;SDS011;702;49.466;11.086;2023-02-27T12:23:02;2.23;;;1.53;;
1414;SDS011;702;49.466;11.086;2023-02-27T12:25:44;2.50;;;1.57;;
1414;SDS011;702;49.466;11.086;2023-02-27T12:28:22;3.43;;;1.70;;
1414;SDS011;702;49.466;11.086;2023-02-27T12:31:06;2.20;;;1.50;;
1414;SDS011;702;49.466;11.086;2023-02-27T12:33:54;2.30;;;1.77;;
1414;SDS011;702;49.466;11.086;2023-02-27T12:36:29;1.83;;;1.50;;
1414;SDS011;702;49.466;11.086;2023-02-27T12:38:58;2.47;;;1.70;;
1414;SDS011;702;49.466;11.086;2023-02-27T12:41:28;2.57;;;1.30;;
1414;SDS011;702;49.466;11.086;2023-02-27T12:44:12;3.60;;;1.90;;
1414;SDS011;702;49.466;11.086;2023-02-27T12:46:52;2.57;;;1.90;;
1414;SDS011;702;49.466;11.086;2023-02-27T12:49:31;2.13;;;1.70;;
1414;SDS011;702;49.466;11.086;2023-02-27T12:52:11;2.43;;;1.70;;
1414;SDS011;702;49.466;11.086;2023-02-27T12:54:52;3.10;;;1.70;;
1414;SDS011;702;49.466;11.086;2023-02-27T13:00:34;1.97;;;1.53;;
1414;SDS011;702;49.466;11.086;2023-02-27T13:03:11;3.33;;;1.47;;
1414;SDS011;702;49.466;11.086;2023-02-27T13:05:44;2.20;;;1.37;;
1414;SDS011;702;49.466;11.086;2023-02-27T13:08:20;3.03;;;1.80;;
1414;SDS011;702;49.466;11.086;2023-02-27T13:11:25;1.50;;;1.40;;
1414;SDS011;702;49.466;11.086;2023-02-27T13:14:04;2.40;;;1.90;;
1414;SDS011;702;49.466;11.086;2023-02-27T13:16:43;3.87;;;2.00;;
1414;SDS011;702;49.466;11.086;2023-02-27T13:19:16;1.77;;;1.43;;
1414;SDS011;702;49.466;11.086;2023-02-27T13:21:56;3.67;;;1.57;;
1414;SDS011;702;49.466;11.086;2023-02-27T13:24:35;1.73;;;1.20;;
1414;SDS011;702;49.466;11.086;2023-02-27T13:27:10;2.90;;;1.73;;
1414;SDS011;702;49.466;11.086;2023-02-27T13:29:47;2.50;;;1.83;;
1414;SDS011;702;49.466;11.086;2023-02-27T13:32:30;3.17;;;2.00;;
1414;SDS011;702;49.466;11.086;2023-02-27T13:35:11;2.10;;;1.70;;
1414;SDS011;702;49.466;11.086;2023-02-27T13:37:53;2.00;;;1.40;;
1414;SDS011;702;49.466;11.086;2023-02-27T13:40:33;3.57;;;1.50;;
1414;SDS011;702;49.466;11.086;2023-02-27T13:43:23;2.23;;;1.40;;
1414;SDS011;702;49.466;11.086;2023-02-27T13:45:55;5.00;;;1.70;;
1414;SDS011;702;49.466;11.086;2023-02-27T13:48:37;1.80;;;1.50;;
1414;SDS011;702;49.466;11.086;2023-02-27T13:54:32;2.60;;;1.40;;
1414;SDS011;702;49.466;11.086;2023-02-27T13:57:06;1.50;;;1.40;;
1414;SDS011;702;49.466;11.086;2023-02-27T13:59:57;1.90;;;1.33;;
1414;SDS011;702;49.466;11.086;2023-02-27T14:05:24;1.93;;;1.50;;
1414;SDS011;702;49.466;11.086;2023-02-27T14:07:56;1.40;;;1.30;;
1414;SDS011;702;49.466;11.086;2023-02-27T14:10:31;1.60;;;1.30;;
1414;SDS011;702;49.466;11.086;2023-02-27T14:12:59;1.80;;;1.23;;
1414;SDS011;702;49.466;11.086;2023-02-27T14:24:23;1.53;;;1.37;;
1414;SDS011;702;49.466;11.086;2023-02-27T14:27:00;1.47;;;1.37;;
1414;SDS011;702;49.466;11.086;2023-02-27T14:29:30;2.93;;;2.20;;
1414;SDS011;702;49.466;11.086;2023-02-27T14:32:00;2.83;;;1.93;;
1414;SDS011;702;49.466;11.086;2023-02-27T14:34:32;2.60;;;1.50;;
1414;SDS011;702;49.466;11.086;2023-02-27T14:37:04;4.50;;;1.67;;
1414;SDS011;702;49.466;11.086;2023-02-27T14:39:38;1.70;;;1.50;;
1414;SDS011;702;49.466;11.086;2023-02-27T14:42:17;2.60;;;1.30;;
1414;SDS011;702;49.466;11.086;2023-02-27T14:44:59;7.00;;;2.10;;
1414;SDS011;702;49.466;11.086;2023-02-27T14:47:29;1.73;;;1.40;;
1414;SDS011;702;49.466;11.086;2023-02-27T14:49:58;3.90;;;1.70;;
1414;SDS011;702;49.466;11.086;2023-02-27T14:52:29;4.00;;;1.47;;
1414;SDS011;702;49.466;11.086;2023-02-27T14:55:08;2.10;;;1.73;;
1414;SDS011;702;49.466;11.086;2023-02-27T14:57:52;1.90;;;1.70;;
1414;SDS011;702;49.466;11.086;2023-02-27T15:00:28;1.73;;;1.40;;
1414;SDS011;702;49.466;11.086;2023-02-27T15:03:07;2.30;;;2.10;;
1414;SDS011;702;49.466;11.086;2023-02-27T15:05:43;1.73;;;1.63;;
1414;SDS011;702;49.466;11.086;2023-02-27T15:08:15;2.00;;;1.80;;
1414;SDS011;702;49.466;11.086;2023-02-27T15:10:45;3.17;;;1.70;;
1414;SDS011;702;49.466;11.086;2023-02-27T15:13:18;2.80;;;1.90;;
1414;SDS011;702;49.466;11.086;2023-02-27T15:15:50;1.93;;;1.67;;
1414;SDS011;702;49.466;11.086;2023-02-27T15:19:09;2.57;;;1.80;;
1414;SDS011;702;49.466;11.086;2023-02-27T15:21:48;4.13;;;1.90;;
1414;SDS011;702;49.466;11.086;2023-02-27T15:24:21;4.23;;;2.10;;
1414;SDS011;702;49.466;11.086;2023-02-27T15:26:54;3.33;;;2.00;;
1414;SDS011;702;49.466;11.086;2023-02-27T15:29:25;2.10;;;2.00;;
1414;SDS011;702;49.466;11.086;2023-02-27T15:31:59;3.10;;;1.70;;
1414;SDS011;702;49.466;11.086;2023-02-27T15:34:29;2.43;;;2.00;;
1414;SDS011;702;49.466;11.086;2023-02-27T15:36:56;4.03;;;2.10;;
1414;SDS011;702;49.466;11.086;2023-02-27T15:39:26;2.13;;;1.90;;
1414;SDS011;702;49.466;11.086;2023-02-27T15:41:58;2.10;;;1.90;;
1414;SDS011;702;49.466;11.086;2023-02-27T15:44:30;1.73;;;1.63;;
1414;SDS011;702;49.466;11.086;2023-02-27T15:47:04;2.50;;;2.30;;
1414;SDS011;702;49.466;11.086;2023-02-27T15:49:33;2.53;;;1.90;;
1414;SDS011;702;49.466;11.086;2023-02-27T15:52:04;2.20;;;2.00;;
1414;SDS011;702;49.466;11.086;2023-02-27T15:54:45;1.80;;;1.70;;
1414;SDS011;702;49.466;11.086;2023-02-27T15:57:18;1.70;;;1.60;;
1414;SDS011;702;49.466;11.086;2023-02-27T15:59:46;2.37;;;1.87;;
1414;SDS011;702;49.466;11.086;2023-02-27T16:02:18;1.83;;;1.57;;
1414;SDS011;702;49.466;11.086;2023-02-27T16:04:50;1.80;;;1.70;;
1414;SDS011;702;49.466;11.086;2023-02-27T16:07:19;2.97;;;1.90;;
1414;SDS011;702;49.466;11.086;2023-02-27T16:09:49;3.50;;;1.90;;
1414;SDS011;702;49.466;11.086;2023-02-27T16:12:21;2.50;;;2.27;;
1414;SDS011;702;49.466;11.086;2023-02-27T16:15:10;4.57;;;3.00;;
1414;SDS011;702;49.466;11.086;2023-02-27T16:17:57;2.37;;;1.63;;
1414;SDS011;702;49.466;11.086;2023-02-27T16:20:35;6.10;;;2.53;;
1414;SDS011;702;49.466;11.086;2023-02-27T16:23:15;2.17;;;1.97;;
1414;SDS011;702;49.466;11.086;2023-02-27T16:28:32;3.83;;;2.43;;